Burna, Kentucky
Current Conditions -  °F | °C
As of 1:55 PM on Friday 24 Oct 2014 (Local Time) from K5M9 Reporting Station
Broken Clouds Broken Clouds  
Wind Chill: 67°   Ceiling: 4700
Heat Index: 67°   Visibility: 10mi
Dew Point: 54°   Wind: 5mph
Humidity: 63%   Direction: 270°W
Pressure: 30.08"   Gusts: NA
Location:  37.25°N, 88.36°W
Report Text: K5M9 241855Z AUTO 27004KT 10SM SCT034 SCT040 BKN047 19/12 A3008 RMK AO2 T01920120
Loading
Personal Weather Stations






























Interactive Weather Map New forecast layout! Learn more

10-Day Weather Forecast

Advertisements
Track Severe Weather on mobile